createdAt,value
2022-10-25T00:01:14.003Z,20.19
2022-10-25T00:03:40.325Z,20.17
2022-10-25T00:06:06.533Z,20.15
2022-10-25T00:08:33.366Z,20.13
2022-10-25T00:10:59.626Z,20.11
2022-10-25T00:13:25.938Z,20.10
2022-10-25T00:15:52.477Z,20.08
2022-10-25T00:18:18.799Z,20.08
2022-10-25T00:20:45.121Z,20.05
2022-10-25T00:23:11.457Z,20.04
2022-10-25T00:25:37.734Z,20.02
2022-10-25T00:28:04.033Z,20.00
2022-10-25T00:30:30.248Z,20.00
2022-10-25T00:32:56.464Z,19.98
2022-10-25T00:35:22.728Z,19.96
2022-10-25T00:37:49.615Z,19.95
2022-10-25T00:40:16.036Z,19.94
2022-10-25T00:42:42.253Z,19.92
2022-10-25T00:45:08.528Z,19.89
2022-10-25T00:47:34.754Z,19.88
2022-10-25T00:50:00.960Z,19.86
2022-10-25T00:52:27.196Z,19.86
2022-10-25T00:54:53.432Z,19.84
2022-10-25T00:57:19.854Z,19.83
2022-10-25T00:59:46.983Z,19.81
2022-10-25T01:02:13.286Z,19.80
2022-10-25T01:04:39.829Z,19.80
2022-10-25T01:07:06.050Z,19.78
2022-10-25T01:09:32.274Z,19.77
2022-10-25T01:11:58.550Z,19.75
2022-10-25T01:14:24.809Z,19.74
2022-10-25T01:16:51.333Z,19.73
2022-10-25T01:19:17.568Z,19.71
2022-10-25T01:21:43.761Z,19.69
2022-10-25T01:24:09.954Z,19.68
2022-10-25T01:26:36.157Z,19.65
2022-10-25T01:29:02.399Z,19.64
2022-10-25T01:31:28.957Z,19.62
2022-10-25T01:33:55.186Z,19.60
2022-10-25T01:36:21.895Z,19.59
2022-10-25T01:38:48.108Z,19.57
2022-10-25T01:41:14.442Z,19.56
2022-10-25T01:43:40.785Z,19.55
2022-10-25T01:46:07.041Z,19.53
2022-10-25T01:48:33.260Z,19.51
2022-10-25T01:50:59.602Z,19.49
2022-10-25T01:53:25.787Z,19.47
2022-10-25T01:55:52.026Z,19.45
2022-10-25T01:58:18.311Z,19.44
2022-10-25T02:00:44.673Z,19.44
2022-10-25T02:03:10.944Z,19.40
2022-10-25T02:05:37.168Z,19.39
2022-10-25T02:08:03.804Z,19.38
2022-10-25T02:10:30.416Z,19.37
2022-10-25T02:12:56.637Z,19.36
2022-10-25T02:15:22.888Z,19.34
2022-10-25T02:17:49.194Z,19.32
2022-10-25T02:20:15.505Z,19.31
2022-10-25T02:22:42.068Z,19.29
2022-10-25T02:25:08.325Z,19.27
2022-10-25T02:27:34.528Z,19.26
2022-10-25T02:30:00.826Z,19.24
2022-10-25T02:32:27.015Z,19.22
2022-10-25T02:34:53.220Z,19.21
2022-10-25T02:37:21.560Z,19.18
2022-10-25T02:39:47.960Z,19.18
2022-10-25T02:42:14.254Z,19.16
2022-10-25T02:44:40.659Z,19.14
2022-10-25T02:47:07.075Z,19.14
2022-10-25T02:49:33.326Z,19.14
2022-10-25T02:52:00.053Z,19.11
2022-10-25T02:54:26.271Z,19.10
2022-10-25T02:56:53.347Z,19.09
2022-10-25T02:59:19.597Z,19.08
2022-10-25T03:01:46.014Z,19.06
2022-10-25T03:04:12.522Z,19.05
2022-10-25T03:06:38.735Z,19.03
2022-10-25T03:09:05.789Z,19.03
2022-10-25T03:11:32.067Z,19.02
2022-10-25T03:13:58.273Z,19.00
2022-10-25T03:16:24.495Z,18.99
2022-10-25T03:18:50.815Z,18.98
2022-10-25T03:21:17.019Z,18.99
2022-10-25T03:23:43.533Z,18.97
2022-10-25T03:26:09.763Z,18.97
2022-10-25T03:28:35.977Z,18.97
2022-10-25T03:31:02.568Z,18.95
2022-10-25T03:33:28.797Z,18.95
2022-10-25T03:35:55.123Z,18.94
2022-10-25T03:38:21.370Z,18.94
2022-10-25T03:40:47.562Z,18.93
2022-10-25T03:43:14.084Z,18.91
2022-10-25T03:45:40.557Z,18.91
2022-10-25T03:48:07.040Z,18.90
2022-10-25T03:50:33.248Z,18.88
2022-10-25T03:53:01.227Z,18.87
2022-10-25T03:55:28.506Z,18.86
2022-10-25T03:57:54.895Z,18.84
2022-10-25T04:00:21.136Z,18.85
2022-10-25T04:02:47.370Z,18.83
2022-10-25T04:05:13.724Z,18.83
2022-10-25T04:07:40.037Z,18.81
2022-10-25T04:10:06.393Z,18.80
2022-10-25T04:12:32.591Z,18.80
2022-10-25T04:14:59.031Z,18.79
2022-10-25T04:17:26.233Z,18.77
2022-10-25T04:19:52.434Z,18.77
2022-10-25T04:22:18.677Z,18.75
2022-10-25T04:24:45.344Z,18.74
2022-10-25T04:27:11.839Z,18.73
2022-10-25T04:29:38.080Z,18.72
2022-10-25T04:32:04.709Z,18.71
2022-10-25T04:34:30.980Z,18.71
2022-10-25T04:36:57.275Z,18.71
2022-10-25T04:39:23.647Z,18.69
2022-10-25T04:41:49.855Z,18.70
2022-10-25T04:44:16.136Z,18.69
2022-10-25T04:46:46.357Z,18.69
2022-10-25T04:49:15.001Z,18.68
2022-10-25T04:51:43.426Z,18.66
2022-10-25T04:54:10.133Z,18.66
2022-10-25T04:56:36.424Z,18.65
2022-10-25T04:59:02.666Z,18.64
2022-10-25T05:01:29.376Z,18.64
2022-10-25T05:03:55.750Z,18.63
2022-10-25T05:06:22.014Z,18.62
2022-10-25T05:08:48.284Z,18.61
2022-10-25T05:11:14.526Z,18.60
2022-10-25T05:13:40.749Z,18.61
2022-10-25T05:16:07.038Z,18.63
2022-10-25T05:18:33.227Z,18.66
2022-10-25T05:20:59.607Z,18.71
2022-10-25T05:23:26.107Z,18.76
2022-10-25T05:25:52.704Z,18.82
2022-10-25T05:28:18.919Z,18.87
2022-10-25T05:30:45.241Z,18.92
2022-10-25T05:33:11.470Z,18.98
2022-10-25T05:35:37.708Z,19.03
2022-10-25T05:38:04.287Z,19.08
2022-10-25T05:40:30.501Z,19.13
2022-10-25T05:42:56.739Z,19.17
2022-10-25T05:45:23.056Z,19.20
2022-10-25T05:47:50.733Z,19.20
2022-10-25T05:50:16.934Z,19.20
2022-10-25T05:52:43.186Z,19.22
2022-10-25T05:55:09.395Z,19.24
2022-10-25T05:57:35.606Z,19.24
2022-10-25T06:00:02.184Z,19.24
2022-10-25T06:02:28.459Z,19.25
2022-10-25T06:04:54.745Z,19.08
2022-10-25T06:07:21.141Z,19.22
2022-10-25T06:09:47.414Z,19.21
2022-10-25T06:12:14.268Z,19.20
2022-10-25T06:14:40.470Z,19.18
2022-10-25T06:17:06.900Z,19.16
2022-10-25T06:19:33.120Z,19.15
2022-10-25T06:21:59.460Z,19.14
2022-10-25T06:24:25.773Z,19.00
2022-10-25T06:26:52.023Z,19.12
2022-10-25T06:29:18.287Z,19.16
2022-10-25T06:31:44.735Z,19.22
2022-10-25T06:34:11.471Z,19.29
2022-10-25T06:36:37.745Z,19.34
2022-10-25T06:39:06.642Z,19.41
2022-10-25T06:41:33.207Z,19.46
2022-10-25T06:44:03.848Z,19.51
2022-10-25T06:46:32.772Z,19.55
2022-10-25T06:48:59.098Z,19.57
2022-10-25T06:51:25.479Z,19.61
2022-10-25T06:53:51.848Z,19.64
2022-10-25T06:56:18.117Z,19.70
2022-10-25T06:58:45.427Z,19.80
2022-10-25T07:01:11.830Z,19.90
2022-10-25T07:03:38.161Z,19.88
2022-10-25T07:06:04.393Z,19.94
2022-10-25T07:08:30.620Z,19.91
2022-10-25T07:10:56.843Z,19.91
2022-10-25T07:13:23.106Z,19.93
2022-10-25T07:15:49.347Z,19.96
2022-10-25T07:18:15.668Z,20.00
2022-10-25T07:20:42.081Z,20.06
2022-10-25T07:23:08.928Z,20.10
2022-10-25T07:25:35.213Z,20.12
2022-10-25T07:28:01.418Z,20.13
2022-10-25T07:30:28.699Z,20.14
2022-10-25T07:32:55.331Z,20.17
2022-10-25T07:35:21.633Z,20.17
2022-10-25T07:37:48.173Z,20.21
2022-10-25T07:40:14.817Z,20.22
2022-10-25T07:42:41.038Z,20.23
2022-10-25T07:45:07.792Z,20.25
2022-10-25T07:47:36.304Z,20.26
2022-10-25T07:50:03.345Z,20.29
2022-10-25T07:52:29.634Z,20.31
2022-10-25T07:54:56.140Z,20.32
2022-10-25T07:57:29.384Z,20.34
2022-10-25T07:59:55.697Z,20.37
2022-10-25T08:02:26.076Z,20.38
2022-10-25T08:04:54.440Z,20.38
2022-10-25T08:07:20.765Z,20.39
2022-10-25T08:09:47.195Z,20.39
2022-10-25T08:12:13.491Z,20.37
2022-10-25T08:14:41.680Z,20.39
2022-10-25T08:17:09.655Z,20.42
2022-10-25T08:19:36.610Z,20.49
2022-10-25T08:22:02.834Z,20.53
2022-10-25T08:24:29.362Z,20.61
2022-10-25T08:26:55.614Z,20.80
2022-10-25T08:29:21.907Z,20.80
2022-10-25T08:31:48.592Z,20.90
2022-10-25T08:34:14.894Z,20.92
2022-10-25T08:36:41.176Z,20.91
2022-10-25T08:39:07.466Z,20.90
2022-10-25T08:41:34.156Z,20.87
2022-10-25T08:46:26.710Z,20.87
2022-10-25T08:48:52.961Z,20.84
2022-10-25T08:51:19.257Z,20.84
2022-10-25T08:53:45.664Z,20.83
2022-10-25T08:56:17.571Z,20.84
2022-10-25T08:58:44.088Z,20.87
2022-10-25T09:01:10.416Z,20.90
2022-10-25T09:03:36.749Z,20.89
2022-10-25T09:06:03.237Z,20.91
2022-10-25T09:08:29.536Z,20.90
2022-10-25T09:10:56.469Z,20.89
2022-10-25T09:13:23.276Z,20.90
2022-10-25T09:15:49.619Z,20.92
2022-10-25T09:18:18.102Z,20.92
2022-10-25T09:20:45.544Z,20.92
2022-10-25T09:23:11.806Z,20.95
2022-10-25T09:25:39.462Z,20.98
2022-10-25T09:28:05.699Z,21.02
2022-10-25T09:30:32.064Z,21.04
2022-10-25T09:32:58.362Z,21.07
2022-10-25T09:35:24.719Z,21.06
2022-10-25T09:37:53.357Z,21.05
2022-10-25T09:40:19.684Z,21.08
2022-10-25T09:42:45.887Z,21.08
2022-10-25T09:45:12.107Z,21.07
2022-10-25T09:47:39.357Z,21.07
2022-10-25T09:50:05.574Z,21.08
2022-10-25T09:52:32.022Z,21.08
2022-10-25T09:54:58.289Z,21.08
2022-10-25T09:57:25.940Z,21.08
2022-10-25T09:59:52.170Z,21.08
2022-10-25T10:02:18.449Z,21.09
2022-10-25T10:04:45.628Z,21.09
2022-10-25T10:07:12.959Z,21.10
2022-10-25T10:09:43.365Z,21.13
2022-10-25T10:12:11.923Z,21.22
2022-10-25T10:14:38.152Z,21.32
2022-10-25T10:17:04.605Z,21.31
2022-10-25T10:19:30.863Z,21.32
2022-10-25T10:22:01.915Z,21.32
2022-10-25T10:24:29.170Z,21.40
2022-10-25T10:26:55.535Z,21.39
2022-10-25T10:29:23.302Z,21.39
2022-10-25T10:31:49.604Z,21.39
2022-10-25T10:34:16.108Z,21.39
2022-10-25T10:36:42.768Z,21.40
2022-10-25T10:39:08.980Z,21.48
2022-10-25T10:41:35.312Z,21.57
2022-10-25T10:44:01.527Z,21.52
2022-10-25T10:46:27.770Z,21.43
2022-10-25T10:48:53.978Z,21.39
2022-10-25T10:54:06.499Z,21.43
2022-10-25T10:56:32.842Z,21.45
2022-10-25T10:58:59.071Z,21.49
2022-10-25T11:01:26.142Z,21.53
2022-10-25T11:03:59.855Z,21.57
2022-10-25T11:06:27.097Z,21.60
2022-10-25T11:08:54.965Z,21.60
2022-10-25T11:11:21.157Z,21.62
2022-10-25T11:13:47.438Z,21.63
2022-10-25T11:16:13.689Z,21.64
2022-10-25T11:18:40.110Z,21.66
2022-10-25T11:21:06.348Z,21.69
2022-10-25T11:23:32.606Z,21.72
2022-10-25T11:25:58.835Z,21.72
2022-10-25T11:28:25.956Z,21.72
2022-10-25T11:30:52.776Z,21.72
2022-10-25T11:33:19.063Z,21.60
2022-10-25T11:35:45.327Z,21.76
2022-10-25T11:38:12.142Z,21.84
2022-10-25T11:40:38.357Z,21.83
2022-10-25T11:43:04.572Z,21.83
2022-10-25T11:45:32.134Z,21.83
2022-10-25T11:47:59.592Z,21.88
2022-10-25T11:50:25.846Z,21.86
2022-10-25T11:52:56.092Z,21.89
2022-10-25T11:55:23.512Z,21.93
2022-10-25T11:57:49.788Z,22.04
2022-10-25T12:00:17.288Z,22.08
2022-10-25T12:02:43.807Z,22.13
2022-10-25T12:05:10.034Z,22.19
2022-10-25T12:07:38.148Z,22.19
2022-10-25T12:10:04.350Z,22.16
2022-10-25T12:12:30.632Z,22.18
2022-10-25T12:14:56.926Z,22.21
2022-10-25T12:17:23.218Z,22.24
2022-10-25T12:19:49.509Z,22.28
2022-10-25T12:22:15.791Z,22.26
2022-10-25T12:24:42.138Z,22.23
2022-10-25T12:27:09.621Z,22.23
2022-10-25T12:29:36.160Z,22.21
2022-10-25T12:32:04.577Z,22.22
2022-10-25T12:34:31.111Z,22.20
2022-10-25T12:36:57.351Z,22.18
2022-10-25T12:39:23.705Z,22.18
2022-10-25T12:41:50.431Z,22.19
2022-10-25T12:44:16.817Z,22.21
2022-10-25T12:46:44.289Z,22.30
2022-10-25T12:49:10.517Z,22.32
2022-10-25T12:51:37.480Z,22.33
2022-10-25T12:54:04.210Z,22.31
2022-10-25T12:56:32.026Z,22.28
2022-10-25T12:59:00.478Z,22.27
2022-10-25T13:01:26.745Z,22.31
2022-10-25T13:03:53.273Z,22.32
2022-10-25T13:06:19.666Z,22.36
2022-10-25T13:08:45.927Z,22.38
2022-10-25T13:11:12.224Z,22.33
2022-10-25T13:13:38.588Z,22.32
2022-10-25T13:16:04.818Z,22.30
2022-10-25T13:18:31.032Z,22.30
2022-10-25T13:20:57.496Z,22.36
2022-10-25T13:23:24.288Z,22.32
2022-10-25T13:25:50.702Z,22.30
2022-10-25T13:28:17.456Z,22.29
2022-10-25T13:30:44.849Z,22.28
2022-10-25T13:33:11.121Z,22.28
2022-10-25T13:35:37.498Z,22.28
2022-10-25T13:38:03.762Z,22.27
2022-10-25T13:40:30.014Z,22.27
2022-10-25T13:42:56.388Z,22.25
2022-10-25T13:45:22.664Z,22.24
2022-10-25T13:47:51.419Z,22.24
2022-10-25T13:50:17.838Z,22.26
2022-10-25T13:52:46.706Z,22.31
2022-10-25T13:55:13.264Z,22.32
2022-10-25T13:57:39.814Z,22.31
2022-10-25T14:00:06.198Z,22.30
2022-10-25T14:02:34.382Z,22.28
2022-10-25T14:05:00.624Z,22.26
2022-10-25T14:07:28.393Z,22.25
2022-10-25T14:09:54.996Z,22.27
2022-10-25T14:12:21.211Z,22.26
2022-10-25T14:14:48.788Z,22.26
2022-10-25T14:17:15.031Z,22.25
2022-10-25T14:19:41.631Z,22.24
2022-10-25T14:22:07.867Z,22.24
2022-10-25T14:24:34.254Z,22.23
2022-10-25T14:27:05.001Z,22.22
2022-10-25T14:29:31.369Z,22.21
2022-10-25T14:31:57.622Z,22.20
2022-10-25T14:34:23.945Z,22.21
2022-10-25T14:36:56.107Z,22.21
2022-10-25T14:39:22.510Z,22.19
2022-10-25T14:41:51.190Z,22.18
2022-10-25T14:44:17.436Z,22.17
2022-10-25T14:46:43.749Z,22.17
2022-10-25T14:49:11.239Z,22.15
2022-10-25T14:51:37.538Z,22.14
2022-10-25T14:54:03.759Z,22.13
2022-10-25T14:56:30.015Z,22.12
2022-10-25T14:58:56.243Z,22.11
2022-10-25T15:01:22.705Z,22.10
2022-10-25T15:03:49.172Z,22.09
2022-10-25T15:06:15.437Z,22.07
2022-10-25T15:08:41.747Z,22.07
2022-10-25T15:11:10.410Z,22.05
2022-10-25T15:13:36.905Z,22.04
2022-10-25T15:16:05.585Z,22.05
2022-10-25T15:18:31.810Z,22.02
2022-10-25T15:20:59.872Z,22.02
2022-10-25T15:23:26.233Z,22.01
2022-10-25T15:25:52.442Z,22.00
2022-10-25T15:28:18.710Z,21.99
2022-10-25T15:30:45.226Z,21.97
2022-10-25T15:33:11.875Z,21.96
2022-10-25T15:35:38.202Z,21.94
2022-10-25T15:38:04.582Z,21.93
2022-10-25T15:40:30.793Z,21.92
2022-10-25T15:42:58.158Z,21.90
2022-10-25T15:45:24.570Z,21.89
2022-10-25T15:47:51.059Z,21.88
2022-10-25T15:50:21.442Z,21.86
2022-10-25T15:52:47.912Z,21.85
2022-10-25T15:55:15.393Z,21.83
2022-10-25T15:57:41.695Z,21.82
2022-10-25T16:00:08.005Z,21.80
2022-10-25T16:02:34.206Z,21.78
2022-10-25T16:05:00.431Z,21.77
2022-10-25T16:07:26.643Z,21.76
2022-10-25T16:09:52.892Z,21.73
2022-10-25T16:12:20.187Z,21.72
2022-10-25T16:14:46.453Z,21.71
2022-10-25T16:17:14.595Z,21.68
2022-10-25T16:19:42.166Z,21.67
2022-10-25T16:22:08.976Z,21.65
2022-10-25T16:24:35.282Z,21.65
2022-10-25T16:27:01.628Z,21.64
2022-10-25T16:29:28.009Z,21.63
2022-10-25T16:31:54.309Z,21.61
2022-10-25T16:34:20.621Z,21.60
2022-10-25T16:36:46.914Z,21.59
2022-10-25T16:39:13.251Z,21.57
2022-10-25T16:41:39.494Z,21.56
2022-10-25T16:44:05.744Z,21.44
2022-10-25T16:46:31.949Z,21.53
2022-10-25T16:49:02.251Z,21.52
2022-10-25T16:51:28.784Z,21.51
2022-10-25T16:53:55.008Z,21.50
2022-10-25T16:56:21.517Z,21.48
2022-10-25T16:58:47.705Z,21.47
2022-10-25T17:01:14.081Z,21.46
2022-10-25T17:03:40.543Z,21.45
2022-10-25T17:06:22.123Z,21.45
2022-10-25T17:08:53.139Z,21.44
2022-10-25T17:11:22.390Z,21.43
2022-10-25T17:13:48.598Z,21.43
2022-10-25T17:16:15.078Z,21.42
2022-10-25T17:18:41.452Z,21.42
2022-10-25T17:21:07.717Z,21.41
2022-10-25T17:23:33.954Z,21.39
2022-10-25T17:26:01.273Z,21.38
2022-10-25T17:28:29.014Z,21.37
2022-10-25T17:31:05.505Z,21.36
2022-10-25T17:33:33.883Z,21.34
2022-10-25T17:36:04.577Z,21.33
2022-10-25T17:38:30.831Z,21.31
2022-10-25T17:40:57.043Z,21.30
2022-10-25T17:43:23.435Z,21.29
2022-10-25T17:45:49.763Z,21.27
2022-10-25T17:48:16.104Z,21.27
2022-10-25T17:50:42.396Z,21.25
2022-10-25T17:53:08.842Z,21.23
2022-10-25T17:55:39.097Z,21.21
2022-10-25T17:58:10.732Z,21.21
2022-10-25T18:00:37.186Z,21.18
2022-10-25T18:03:03.826Z,21.16
2022-10-25T18:05:30.054Z,21.16
2022-10-25T18:07:59.107Z,21.15
2022-10-25T18:10:25.376Z,21.13
2022-10-25T18:12:51.899Z,21.11
2022-10-25T18:15:18.387Z,21.10
2022-10-25T18:17:45.160Z,21.08
2022-10-25T18:20:11.682Z,21.07
2022-10-25T18:22:37.946Z,21.06
2022-10-25T18:25:04.241Z,21.06
2022-10-25T18:27:30.492Z,21.05
2022-10-25T18:29:56.709Z,21.04
2022-10-25T18:32:23.059Z,21.03
2022-10-25T18:34:49.348Z,21.02
2022-10-25T18:37:15.614Z,21.02
2022-10-25T18:39:41.967Z,21.00
2022-10-25T18:42:08.183Z,21.00
2022-10-25T18:44:34.450Z,20.99
2022-10-25T18:47:05.214Z,21.01
2022-10-25T18:49:31.474Z,21.06
2022-10-25T18:51:57.677Z,21.15
2022-10-25T18:54:23.976Z,21.08
2022-10-25T18:56:50.276Z,21.29
2022-10-25T18:59:16.483Z,21.39
2022-10-25T19:01:42.922Z,21.47
2022-10-25T19:04:10.035Z,21.56
2022-10-25T19:06:37.279Z,21.63
2022-10-25T19:09:03.522Z,21.73
2022-10-25T19:11:30.083Z,21.82
2022-10-25T19:13:56.275Z,21.92
2022-10-25T19:16:22.460Z,22.03
2022-10-25T19:18:48.725Z,22.15
2022-10-25T19:21:17.509Z,22.26
2022-10-25T19:23:43.799Z,22.35
2022-10-25T19:26:12.457Z,22.46
2022-10-25T19:28:38.829Z,22.55
2022-10-25T19:31:06.041Z,22.65
2022-10-25T19:33:32.300Z,22.75
2022-10-25T19:35:58.587Z,22.81
2022-10-25T19:38:24.928Z,22.86
2022-10-25T19:40:51.192Z,22.92
2022-10-25T19:43:17.509Z,23.00
2022-10-25T19:45:43.969Z,23.08
2022-10-25T19:48:10.239Z,23.14
2022-10-25T19:50:36.483Z,23.19
2022-10-25T19:53:02.819Z,23.21
2022-10-25T19:55:29.027Z,23.25
2022-10-25T19:57:55.269Z,23.31
2022-10-25T20:00:21.483Z,23.36
2022-10-25T20:02:47.883Z,23.40
2022-10-25T20:05:14.129Z,23.44
2022-10-25T20:07:40.408Z,23.47
2022-10-25T20:10:06.686Z,23.50
2022-10-25T20:12:32.921Z,23.55
2022-10-25T20:14:59.260Z,23.60
2022-10-25T20:17:29.090Z,23.64
2022-10-25T20:19:55.520Z,23.66
2022-10-25T20:22:21.806Z,23.71
2022-10-25T20:24:48.076Z,23.74
2022-10-25T20:27:14.274Z,23.79
2022-10-25T20:29:41.071Z,23.80
2022-10-25T20:32:07.363Z,23.89
2022-10-25T20:34:33.592Z,23.92
2022-10-25T20:36:59.810Z,23.95
2022-10-25T20:39:26.158Z,23.98
2022-10-25T20:41:52.387Z,24.00
2022-10-25T20:44:18.682Z,24.01
2022-10-25T20:46:47.060Z,24.05
2022-10-25T20:49:13.462Z,24.10
2022-10-25T20:51:39.664Z,24.15
2022-10-25T20:54:05.937Z,24.20
2022-10-25T20:56:32.207Z,24.25
2022-10-25T20:58:58.783Z,24.27
2022-10-25T21:01:25.307Z,24.28
2022-10-25T21:03:51.634Z,24.28
2022-10-25T21:06:17.910Z,24.25
2022-10-25T21:08:44.213Z,24.23
2022-10-25T21:11:10.458Z,24.20
2022-10-25T21:13:36.825Z,24.16
2022-10-25T21:16:03.229Z,24.13
2022-10-25T21:18:32.700Z,24.09
2022-10-25T21:20:58.920Z,24.04
2022-10-25T21:23:25.171Z,23.98
2022-10-25T21:25:51.401Z,23.93
2022-10-25T21:28:17.628Z,23.87
2022-10-25T21:30:43.855Z,23.83
2022-10-25T21:33:10.064Z,23.80
2022-10-25T21:35:36.358Z,23.78
2022-10-25T21:38:02.889Z,23.77
2022-10-25T21:40:29.141Z,23.76
2022-10-25T21:42:55.405Z,23.76
2022-10-25T21:45:21.599Z,23.79
2022-10-25T21:47:48.133Z,23.83
2022-10-25T21:50:14.484Z,23.85
2022-10-25T21:52:40.732Z,23.88
2022-10-25T21:55:07.155Z,23.89
2022-10-25T21:57:33.340Z,23.89
2022-10-25T21:59:59.735Z,23.81
2022-10-25T22:02:26.095Z,23.71
2022-10-25T22:04:52.568Z,23.66
2022-10-25T22:07:18.830Z,23.62
2022-10-25T22:09:45.217Z,23.57
2022-10-25T22:12:11.447Z,23.50
2022-10-25T22:14:37.965Z,23.43
2022-10-25T22:17:04.204Z,23.37
2022-10-25T22:19:30.418Z,23.30
2022-10-25T22:21:56.618Z,23.22
2022-10-25T22:24:22.859Z,23.14
2022-10-25T22:26:49.110Z,23.07
2022-10-25T22:29:15.334Z,22.99
2022-10-25T22:31:41.603Z,22.92
2022-10-25T22:34:07.807Z,22.85
2022-10-25T22:36:34.004Z,22.78
2022-10-25T22:39:00.272Z,22.70
2022-10-25T22:41:27.074Z,22.62
2022-10-25T22:43:53.352Z,22.55
2022-10-25T22:46:20.194Z,22.47
2022-10-25T22:48:46.414Z,22.40
2022-10-25T22:51:12.601Z,22.32
2022-10-25T22:53:38.941Z,22.25
2022-10-25T22:56:05.242Z,22.18
2022-10-25T22:58:31.543Z,22.11
2022-10-25T23:00:57.890Z,22.04
2022-10-25T23:03:24.234Z,21.97
2022-10-25T23:05:50.459Z,21.92
2022-10-25T23:08:16.707Z,21.84
2022-10-25T23:10:42.941Z,21.79
2022-10-25T23:13:09.358Z,21.72
2022-10-25T23:15:36.721Z,21.66
2022-10-25T23:18:02.951Z,21.59
2022-10-25T23:20:29.193Z,21.54
2022-10-25T23:22:55.384Z,21.48
2022-10-25T23:25:21.569Z,21.43
2022-10-25T23:27:48.575Z,21.36
2022-10-25T23:30:16.233Z,21.31
2022-10-25T23:32:42.470Z,21.26
2022-10-25T23:35:08.697Z,21.20
2022-10-25T23:37:34.924Z,21.15
2022-10-25T23:40:01.165Z,21.09
2022-10-25T23:42:27.503Z,21.03
2022-10-25T23:44:53.782Z,21.00
2022-10-25T23:47:19.962Z,20.94
2022-10-25T23:49:46.239Z,20.90
2022-10-25T23:52:12.462Z,20.85
2022-10-25T23:54:38.722Z,20.81
2022-10-25T23:57:05.045Z,20.75
2022-10-25T23:59:31.240Z,20.71
